Hlavní strana
METAR-TAF:

METAR-TAF

Letiště :

Hemavan, Švédsko

zeměpisná šířka: 65-48-22N, zeměpisná délka: 015-04-58E, výška: 458 m

Aktuální stav počasí

Zpráva byla vytvořena před 22 minutami, v 04:20 UTC
Jihojihovýchodní vítr 10 kt
Teplota -5°C
Vlhkost vzduchu 86%
Tlak 979 hPa
Viditelnost 10 km a více

METAR: ESUT 020420Z AUTO 15010KT 9999 FEW020/// SCT028/// BKN036/// M05/M07 Q0979 RESHUP RESG

Čas: 06:42 (04:42 UTC)


TAF: chybějící

Stav a předpovědi počasí z více než 4 000 letišť (zprávy METAR a TAF).

Červené a žluté tečky na mapě představují dostupné meteorologické stanice.

Když kurzor umístíte na tečku, zobrazí se název stanice.

Pak kliknutím zobrazíte stav a předpověď počasí.

Chcete-li změnit mapu, kliknutím na zelené tlačítko se znaménkem +mapu přiblížíte, kliknutím na zelené tlačítko se znaménkem – mapu oddálíte a kliknutím na zelené šipky přejdete na sousední mapy.


METAR-TAF: